sensor_id;sensor_type;location;lat;lon;timestamp;temperature;humidity
21805;DHT22;11064;47.102;15.452;2023-07-08T00:00:21;14.50;99.90
21805;DHT22;11064;47.102;15.452;2023-07-08T00:02:47;14.40;99.90
21805;DHT22;11064;47.102;15.452;2023-07-08T00:05:15;14.40;99.90
21805;DHT22;11064;47.102;15.452;2023-07-08T00:07:42;14.40;99.90
21805;DHT22;11064;47.102;15.452;2023-07-08T00:10:21;14.50;99.90
21805;DHT22;11064;47.102;15.452;2023-07-08T00:12:52;14.40;99.90
21805;DHT22;11064;47.102;15.452;2023-07-08T00:15:21;14.40;99.90
21805;DHT22;11064;47.102;15.452;2023-07-08T00:17:48;14.40;99.90
21805;DHT22;11064;47.102;15.452;2023-07-08T00:20:18;14.40;99.90
21805;DHT22;11064;47.102;15.452;2023-07-08T00:22:45;14.50;99.90
21805;DHT22;11064;47.102;15.452;2023-07-08T00:25:15;14.50;99.90
21805;DHT22;11064;47.102;15.452;2023-07-08T00:27:41;14.50;99.90
21805;DHT22;11064;47.102;15.452;2023-07-08T00:30:28;14.50;99.90
21805;DHT22;11064;47.102;15.452;2023-07-08T00:32:55;14.60;99.90
21805;DHT22;11064;47.102;15.452;2023-07-08T00:38:14;14.50;99.90
21805;DHT22;11064;47.102;15.452;2023-07-08T00:41:06;14.40;99.90
21805;DHT22;11064;47.102;15.452;2023-07-08T00:43:51;14.40;99.90
21805;DHT22;11064;47.102;15.452;2023-07-08T00:51:38;14.10;99.90
21805;DHT22;11064;47.102;15.452;2023-07-08T00:54:11;14.00;99.90
21805;DHT22;11064;47.102;15.452;2023-07-08T00:56:49;14.10;99.90
21805;DHT22;11064;47.102;15.452;2023-07-08T00:59:23;14.00;99.90
21805;DHT22;11064;47.102;15.452;2023-07-08T01:01:50;14.00;99.90
21805;DHT22;11064;47.102;15.452;2023-07-08T01:04:40;14.00;99.90
21805;DHT22;11064;47.102;15.452;2023-07-08T01:07:10;14.00;99.90
21805;DHT22;11064;47.102;15.452;2023-07-08T01:09:44;13.90;99.90
21805;DHT22;11064;47.102;15.452;2023-07-08T01:12:23;13.80;99.90
21805;DHT22;11064;47.102;15.452;2023-07-08T01:14:53;13.80;99.90
21805;DHT22;11064;47.102;15.452;2023-07-08T01:17:21;13.80;99.90
21805;DHT22;11064;47.102;15.452;2023-07-08T01:19:49;13.80;99.90
21805;DHT22;11064;47.102;15.452;2023-07-08T01:22:16;13.80;99.90
21805;DHT22;11064;47.102;15.452;2023-07-08T01:24:44;13.70;99.90
21805;DHT22;11064;47.102;15.452;2023-07-08T01:27:14;13.70;99.90
21805;DHT22;11064;47.102;15.452;2023-07-08T01:29:40;13.70;99.90
21805;DHT22;11064;47.102;15.452;2023-07-08T01:32:09;13.70;99.90
21805;DHT22;11064;47.102;15.452;2023-07-08T01:34:39;13.70;99.90
21805;DHT22;11064;47.102;15.452;2023-07-08T01:37:06;13.60;99.90
21805;DHT22;11064;47.102;15.452;2023-07-08T01:39:33;13.60;99.90
21805;DHT22;11064;47.102;15.452;2023-07-08T01:41:59;13.60;99.90
21805;DHT22;11064;47.102;15.452;2023-07-08T01:44:29;13.50;99.90
21805;DHT22;11064;47.102;15.452;2023-07-08T01:46:59;13.40;99.90
21805;DHT22;11064;47.102;15.452;2023-07-08T01:49:27;13.40;99.90
21805;DHT22;11064;47.102;15.452;2023-07-08T01:51:54;13.40;99.90
21805;DHT22;11064;47.102;15.452;2023-07-08T01:54:20;13.30;99.90
21805;DHT22;11064;47.102;15.452;2023-07-08T01:56:46;13.40;99.90
21805;DHT22;11064;47.102;15.452;2023-07-08T01:59:12;13.50;99.90
21805;DHT22;11064;47.102;15.452;2023-07-08T02:01:38;13.50;99.90
21805;DHT22;11064;47.102;15.452;2023-07-08T02:04:04;13.50;99.90
21805;DHT22;11064;47.102;15.452;2023-07-08T02:06:29;13.50;99.90
21805;DHT22;11064;47.102;15.452;2023-07-08T02:08:55;13.50;99.90
21805;DHT22;11064;47.102;15.452;2023-07-08T02:11:24;13.50;99.90
21805;DHT22;11064;47.102;15.452;2023-07-08T02:13:50;13.50;99.90
21805;DHT22;11064;47.102;15.452;2023-07-08T02:16:16;13.40;99.90
21805;DHT22;11064;47.102;15.452;2023-07-08T02:18:41;13.40;99.90
21805;DHT22;11064;47.102;15.452;2023-07-08T02:21:08;13.40;99.90
21805;DHT22;11064;47.102;15.452;2023-07-08T02:23:34;13.30;99.90
21805;DHT22;11064;47.102;15.452;2023-07-08T02:26:00;13.30;99.90
21805;DHT22;11064;47.102;15.452;2023-07-08T02:28:26;13.30;99.90
21805;DHT22;11064;47.102;15.452;2023-07-08T02:30:52;13.30;99.90
21805;DHT22;11064;47.102;15.452;2023-07-08T02:33:17;13.30;99.90
21805;DHT22;11064;47.102;15.452;2023-07-08T02:35:43;13.30;99.90
21805;DHT22;11064;47.102;15.452;2023-07-08T02:38:10;13.30;99.90
21805;DHT22;11064;47.102;15.452;2023-07-08T02:40:36;13.30;99.90
21805;DHT22;11064;47.102;15.452;2023-07-08T02:43:02;13.30;99.90
21805;DHT22;11064;47.102;15.452;2023-07-08T02:45:27;13.20;99.90
21805;DHT22;11064;47.102;15.452;2023-07-08T02:47:53;13.20;99.90
21805;DHT22;11064;47.102;15.452;2023-07-08T02:50:19;13.20;99.90
21805;DHT22;11064;47.102;15.452;2023-07-08T02:52:45;13.20;99.90
21805;DHT22;11064;47.102;15.452;2023-07-08T02:55:10;13.20;99.90
21805;DHT22;11064;47.102;15.452;2023-07-08T02:57:36;13.20;99.90
21805;DHT22;11064;47.102;15.452;2023-07-08T03:00:03;13.10;99.90
21805;DHT22;11064;47.102;15.452;2023-07-08T03:02:32;13.10;99.90
21805;DHT22;11064;47.102;15.452;2023-07-08T03:04:58;13.10;99.90
21805;DHT22;11064;47.102;15.452;2023-07-08T03:07:26;13.10;99.90
21805;DHT22;11064;47.102;15.452;2023-07-08T03:09:52;13.20;99.90
21805;DHT22;11064;47.102;15.452;2023-07-08T03:12:17;13.30;99.90
21805;DHT22;11064;47.102;15.452;2023-07-08T03:14:43;13.30;99.90
21805;DHT22;11064;47.102;15.452;2023-07-08T03:17:10;13.30;99.90
21805;DHT22;11064;47.102;15.452;2023-07-08T03:19:36;13.40;99.90
21805;DHT22;11064;47.102;15.452;2023-07-08T03:22:02;13.40;99.90
21805;DHT22;11064;47.102;15.452;2023-07-08T03:24:30;13.40;99.90
21805;DHT22;11064;47.102;15.452;2023-07-08T03:26:56;13.40;99.90
21805;DHT22;11064;47.102;15.452;2023-07-08T03:29:23;13.40;99.90
21805;DHT22;11064;47.102;15.452;2023-07-08T03:31:48;13.30;99.90
21805;DHT22;11064;47.102;15.452;2023-07-08T03:34:16;13.30;99.90
21805;DHT22;11064;47.102;15.452;2023-07-08T03:36:47;13.30;99.90
21805;DHT22;11064;47.102;15.452;2023-07-08T03:39:18;13.40;99.90
21805;DHT22;11064;47.102;15.452;2023-07-08T03:41:44;13.50;99.90
21805;DHT22;11064;47.102;15.452;2023-07-08T03:44:11;13.50;99.90
21805;DHT22;11064;47.102;15.452;2023-07-08T03:46:38;13.60;99.90
21805;DHT22;11064;47.102;15.452;2023-07-08T03:49:05;13.60;99.90
21805;DHT22;11064;47.102;15.452;2023-07-08T03:51:34;13.60;99.90
21805;DHT22;11064;47.102;15.452;2023-07-08T03:54:01;13.70;99.90
21805;DHT22;11064;47.102;15.452;2023-07-08T03:56:27;13.70;99.90
21805;DHT22;11064;47.102;15.452;2023-07-08T03:58:53;13.70;99.90
21805;DHT22;11064;47.102;15.452;2023-07-08T04:01:21;13.80;99.90
21805;DHT22;11064;47.102;15.452;2023-07-08T04:03:54;14.00;99.90
21805;DHT22;11064;47.102;15.452;2023-07-08T04:06:20;14.90;99.90
21805;DHT22;11064;47.102;15.452;2023-07-08T04:08:47;16.50;99.90
21805;DHT22;11064;47.102;15.452;2023-07-08T04:11:17;17.80;99.90
21805;DHT22;11064;47.102;15.452;2023-07-08T04:13:43;18.70;99.90
21805;DHT22;11064;47.102;15.452;2023-07-08T04:16:25;19.20;99.90
21805;DHT22;11064;47.102;15.452;2023-07-08T04:18:54;19.60;99.90
21805;DHT22;11064;47.102;15.452;2023-07-08T04:21:22;20.10;99.90
21805;DHT22;11064;47.102;15.452;2023-07-08T04:23:48;20.50;99.90
21805;DHT22;11064;47.102;15.452;2023-07-08T04:26:15;20.30;99.90
21805;DHT22;11064;47.102;15.452;2023-07-08T04:28:41;20.50;99.90
21805;DHT22;11064;47.102;15.452;2023-07-08T04:31:07;21.30;98.30
21805;DHT22;11064;47.102;15.452;2023-07-08T04:33:33;22.70;94.70
21805;DHT22;11064;47.102;15.452;2023-07-08T04:35:59;23.10;92.00
21805;DHT22;11064;47.102;15.452;2023-07-08T04:38:26;24.00;88.10
21805;DHT22;11064;47.102;15.452;2023-07-08T04:40:53;23.70;84.20
21805;DHT22;11064;47.102;15.452;2023-07-08T04:43:21;23.90;82.80
21805;DHT22;11064;47.102;15.452;2023-07-08T05:01:19;24.90;72.40
21805;DHT22;11064;47.102;15.452;2023-07-08T05:03:45;25.70;72.10
21805;DHT22;11064;47.102;15.452;2023-07-08T05:06:10;25.20;71.10
21805;DHT22;11064;47.102;15.452;2023-07-08T05:08:36;25.50;71.10
21805;DHT22;11064;47.102;15.452;2023-07-08T05:11:02;25.50;70.00
21805;DHT22;11064;47.102;15.452;2023-07-08T05:13:28;26.40;68.40
21805;DHT22;11064;47.102;15.452;2023-07-08T05:15:53;26.60;65.80
21805;DHT22;11064;47.102;15.452;2023-07-08T05:18:19;26.80;65.70
21805;DHT22;11064;47.102;15.452;2023-07-08T05:20:51;27.00;63.80
21805;DHT22;11064;47.102;15.452;2023-07-08T05:23:17;26.90;62.40
21805;DHT22;11064;47.102;15.452;2023-07-08T05:25:43;26.50;63.60
21805;DHT22;11064;47.102;15.452;2023-07-08T05:28:09;27.00;62.80
21805;DHT22;11064;47.102;15.452;2023-07-08T05:30:35;27.00;62.70
21805;DHT22;11064;47.102;15.452;2023-07-08T05:33:01;28.30;60.90
21805;DHT22;11064;47.102;15.452;2023-07-08T05:35:27;29.20;57.60
21805;DHT22;11064;47.102;15.452;2023-07-08T05:37:52;29.10;57.10
21805;DHT22;11064;47.102;15.452;2023-07-08T05:40:18;28.80;57.30
21805;DHT22;11064;47.102;15.452;2023-07-08T05:42:44;29.60;56.00
21805;DHT22;11064;47.102;15.452;2023-07-08T05:45:10;30.60;54.40
21805;DHT22;11064;47.102;15.452;2023-07-08T05:47:37;30.50;52.90
21805;DHT22;11064;47.102;15.452;2023-07-08T05:50:03;30.40;52.20
21805;DHT22;11064;47.102;15.452;2023-07-08T05:52:29;31.10;52.50
21805;DHT22;11064;47.102;15.452;2023-07-08T05:54:54;31.40;50.70
21805;DHT22;11064;47.102;15.452;2023-07-08T05:57:21;31.60;50.60
21805;DHT22;11064;47.102;15.452;2023-07-08T05:59:48;31.60;50.40
21805;DHT22;11064;47.102;15.452;2023-07-08T06:02:17;32.20;50.30
21805;DHT22;11064;47.102;15.452;2023-07-08T06:04:45;32.30;48.60
21805;DHT22;11064;47.102;15.452;2023-07-08T06:07:10;32.60;47.70
21805;DHT22;11064;47.102;15.452;2023-07-08T06:09:36;31.90;47.50
21805;DHT22;11064;47.102;15.452;2023-07-08T06:12:02;32.50;47.10
21805;DHT22;11064;47.102;15.452;2023-07-08T06:14:28;33.10;46.20
21805;DHT22;11064;47.102;15.452;2023-07-08T06:16:54;32.40;45.90
21805;DHT22;11064;47.102;15.452;2023-07-08T06:19:21;32.40;47.50
21805;DHT22;11064;47.102;15.452;2023-07-08T06:21:46;32.40;47.60
21805;DHT22;11064;47.102;15.452;2023-07-08T06:24:12;32.40;48.20
21805;DHT22;11064;47.102;15.452;2023-07-08T06:26:38;31.70;49.20
21805;DHT22;11064;47.102;15.452;2023-07-08T06:29:04;30.70;51.80
21805;DHT22;11064;47.102;15.452;2023-07-08T06:31:30;29.70;53.30
21805;DHT22;11064;47.102;15.452;2023-07-08T06:33:57;28.90;55.30
21805;DHT22;11064;47.102;15.452;2023-07-08T06:36:22;27.50;57.60
21805;DHT22;11064;47.102;15.452;2023-07-08T06:38:48;26.40;61.60
21805;DHT22;11064;47.102;15.452;2023-07-08T06:41:14;25.40;65.90
21805;DHT22;11064;47.102;15.452;2023-07-08T06:43:40;24.40;69.40
21805;DHT22;11064;47.102;15.452;2023-07-08T06:46:06;23.90;72.00
21805;DHT22;11064;47.102;15.452;2023-07-08T06:48:32;23.60;74.80
21805;DHT22;11064;47.102;15.452;2023-07-08T06:50:58;23.60;76.40
21805;DHT22;11064;47.102;15.452;2023-07-08T06:53:24;23.70;77.60
21805;DHT22;11064;47.102;15.452;2023-07-08T06:55:50;23.70;80.80
21805;DHT22;11064;47.102;15.452;2023-07-08T06:58:16;23.60;81.00
21805;DHT22;11064;47.102;15.452;2023-07-08T07:00:45;23.50;83.20
21805;DHT22;11064;47.102;15.452;2023-07-08T07:03:11;23.50;82.30
21805;DHT22;11064;47.102;15.452;2023-07-08T07:05:38;23.70;83.00
21805;DHT22;11064;47.102;15.452;2023-07-08T07:08:05;23.90;81.60
21805;DHT22;11064;47.102;15.452;2023-07-08T07:10:33;23.90;79.60
21805;DHT22;11064;47.102;15.452;2023-07-08T07:12:59;24.00;77.50
21805;DHT22;11064;47.102;15.452;2023-07-08T07:15:25;23.80;78.50
21805;DHT22;11064;47.102;15.452;2023-07-08T07:17:51;24.00;76.70
21805;DHT22;11064;47.102;15.452;2023-07-08T07:20:17;24.10;78.50
21805;DHT22;11064;47.102;15.452;2023-07-08T07:22:43;24.40;78.50
21805;DHT22;11064;47.102;15.452;2023-07-08T07:25:09;24.60;74.90
21805;DHT22;11064;47.102;15.452;2023-07-08T07:27:35;24.80;71.20
21805;DHT22;11064;47.102;15.452;2023-07-08T07:30:00;24.90;72.70
21805;DHT22;11064;47.102;15.452;2023-07-08T07:32:26;24.70;75.20
21805;DHT22;11064;47.102;15.452;2023-07-08T07:34:53;24.90;69.60
21805;DHT22;11064;47.102;15.452;2023-07-08T07:37:21;24.90;71.10
21805;DHT22;11064;47.102;15.452;2023-07-08T07:39:47;25.10;69.50
21805;DHT22;11064;47.102;15.452;2023-07-08T07:42:14;24.90;67.50
21805;DHT22;11064;47.102;15.452;2023-07-08T07:44:40;24.80;68.00
21805;DHT22;11064;47.102;15.452;2023-07-08T07:47:07;25.00;67.60
21805;DHT22;11064;47.102;15.452;2023-07-08T07:49:34;25.20;69.90
21805;DHT22;11064;47.102;15.452;2023-07-08T07:52:00;25.20;73.00
21805;DHT22;11064;47.102;15.452;2023-07-08T07:54:26;25.40;71.20
21805;DHT22;11064;47.102;15.452;2023-07-08T07:56:52;25.70;73.30
21805;DHT22;11064;47.102;15.452;2023-07-08T07:59:18;25.80;71.30
21805;DHT22;11064;47.102;15.452;2023-07-08T08:01:44;25.80;67.80
21805;DHT22;11064;47.102;15.452;2023-07-08T08:04:10;25.80;64.80
21805;DHT22;11064;47.102;15.452;2023-07-08T08:06:36;25.70;64.50
21805;DHT22;11064;47.102;15.452;2023-07-08T08:09:03;25.70;67.30
21805;DHT22;11064;47.102;15.452;2023-07-08T08:11:29;25.80;69.30
21805;DHT22;11064;47.102;15.452;2023-07-08T08:13:55;25.70;66.40
21805;DHT22;11064;47.102;15.452;2023-07-08T08:16:21;25.90;68.40
21805;DHT22;11064;47.102;15.452;2023-07-08T08:18:47;26.00;66.60
21805;DHT22;11064;47.102;15.452;2023-07-08T08:21:13;25.80;67.20
21805;DHT22;11064;47.102;15.452;2023-07-08T08:23:39;25.70;72.60
21805;DHT22;11064;47.102;15.452;2023-07-08T08:26:05;25.90;72.50
21805;DHT22;11064;47.102;15.452;2023-07-08T08:28:30;26.00;70.40
21805;DHT22;11064;47.102;15.452;2023-07-08T08:30:56;26.00;67.30
21805;DHT22;11064;47.102;15.452;2023-07-08T08:33:22;26.00;66.90
21805;DHT22;11064;47.102;15.452;2023-07-08T08:35:48;26.20;64.10
21805;DHT22;11064;47.102;15.452;2023-07-08T08:38:14;26.20;68.20
21805;DHT22;11064;47.102;15.452;2023-07-08T08:40:41;26.10;62.20
21805;DHT22;11064;47.102;15.452;2023-07-08T08:43:15;26.10;66.00
21805;DHT22;11064;47.102;15.452;2023-07-08T08:48:29;26.20;68.40
21805;DHT22;11064;47.102;15.452;2023-07-08T08:51:00;26.40;66.30
21805;DHT22;11064;47.102;15.452;2023-07-08T08:53:30;26.40;64.80
21805;DHT22;11064;47.102;15.452;2023-07-08T08:56:20;26.60;65.20
21805;DHT22;11064;47.102;15.452;2023-07-08T08:58:49;26.40;59.60
21805;DHT22;11064;47.102;15.452;2023-07-08T09:01:20;26.20;59.30
21805;DHT22;11064;47.102;15.452;2023-07-08T09:03:47;26.10;62.00
21805;DHT22;11064;47.102;15.452;2023-07-08T09:06:24;26.20;65.00
21805;DHT22;11064;47.102;15.452;2023-07-08T09:08:51;26.30;63.50
21805;DHT22;11064;47.102;15.452;2023-07-08T09:11:54;26.50;64.10
21805;DHT22;11064;47.102;15.452;2023-07-08T09:14:26;26.70;63.70
21805;DHT22;11064;47.102;15.452;2023-07-08T09:29:33;26.40;56.60
21805;DHT22;11064;47.102;15.452;2023-07-08T09:32:04;27.20;62.90
21805;DHT22;11064;47.102;15.452;2023-07-08T09:34:42;27.20;56.90
21805;DHT22;11064;47.102;15.452;2023-07-08T09:37:36;27.00;60.00
21805;DHT22;11064;47.102;15.452;2023-07-08T09:40:17;27.00;59.10
21805;DHT22;11064;47.102;15.452;2023-07-08T09:42:49;27.10;62.20
21805;DHT22;11064;47.102;15.452;2023-07-08T09:45:22;27.50;58.50
21805;DHT22;11064;47.102;15.452;2023-07-08T09:47:53;27.70;57.90
21805;DHT22;11064;47.102;15.452;2023-07-08T09:50:28;27.60;57.60
21805;DHT22;11064;47.102;15.452;2023-07-08T09:52:57;27.80;59.70
21805;DHT22;11064;47.102;15.452;2023-07-08T09:55:25;28.00;58.00
21805;DHT22;11064;47.102;15.452;2023-07-08T09:57:53;27.60;56.10
21805;DHT22;11064;47.102;15.452;2023-07-08T10:00:28;27.00;56.30
21805;DHT22;11064;47.102;15.452;2023-07-08T10:02:57;27.00;58.40
21805;DHT22;11064;47.102;15.452;2023-07-08T10:05:34;27.40;59.40
21805;DHT22;11064;47.102;15.452;2023-07-08T10:08:02;27.80;65.60
21805;DHT22;11064;47.102;15.452;2023-07-08T10:10:35;28.10;66.20
21805;DHT22;11064;47.102;15.452;2023-07-08T10:13:37;28.40;63.20
21805;DHT22;11064;47.102;15.452;2023-07-08T10:18:34;28.90;59.90
21805;DHT22;11064;47.102;15.452;2023-07-08T10:21:14;28.90;56.10
21805;DHT22;11064;47.102;15.452;2023-07-08T10:26:37;28.50;56.60
21805;DHT22;11064;47.102;15.452;2023-07-08T10:32:19;28.30;56.50
21805;DHT22;11064;47.102;15.452;2023-07-08T10:35:08;28.30;55.30
21805;DHT22;11064;47.102;15.452;2023-07-08T10:40:54;28.10;58.10
21805;DHT22;11064;47.102;15.452;2023-07-08T10:43:46;28.20;55.50
21805;DHT22;11064;47.102;15.452;2023-07-08T10:54:30;28.20;54.70
21805;DHT22;11064;47.102;15.452;2023-07-08T10:57:12;28.30;57.80
21805;DHT22;11064;47.102;15.452;2023-07-08T11:00:02;28.60;61.00
21805;DHT22;11064;47.102;15.452;2023-07-08T11:05:56;29.00;61.30
21805;DHT22;11064;47.102;15.452;2023-07-08T11:08:32;29.30;59.20
21805;DHT22;11064;47.102;15.452;2023-07-08T11:13:47;29.30;59.90
21805;DHT22;11064;47.102;15.452;2023-07-08T11:16:26;29.40;56.40
21805;DHT22;11064;47.102;15.452;2023-07-08T11:19:04;29.50;58.20
21805;DHT22;11064;47.102;15.452;2023-07-08T11:21:40;29.50;59.70
21805;DHT22;11064;47.102;15.452;2023-07-08T11:24:32;29.60;55.80
21805;DHT22;11064;47.102;15.452;2023-07-08T11:27:23;29.20;55.80
21805;DHT22;11064;47.102;15.452;2023-07-08T11:33:04;29.10;54.30
21805;DHT22;11064;47.102;15.452;2023-07-08T11:36:03;28.90;57.70
21805;DHT22;11064;47.102;15.452;2023-07-08T11:38:32;29.00;59.80
21805;DHT22;11064;47.102;15.452;2023-07-08T11:41:01;28.60;60.70
21805;DHT22;11064;47.102;15.452;2023-07-08T11:43:37;29.20;58.20
21805;DHT22;11064;47.102;15.452;2023-07-08T11:46:06;29.60;59.80
21805;DHT22;11064;47.102;15.452;2023-07-08T11:48:44;30.10;57.50
21805;DHT22;11064;47.102;15.452;2023-07-08T11:51:23;30.20;59.30
21805;DHT22;11064;47.102;15.452;2023-07-08T11:59:24;30.10;51.70
21805;DHT22;11064;47.102;15.452;2023-07-08T12:02:12;29.90;54.10
21805;DHT22;11064;47.102;15.452;2023-07-08T12:04:57;29.60;62.00
21805;DHT22;11064;47.102;15.452;2023-07-08T12:07:41;29.50;60.30
21805;DHT22;11064;47.102;15.452;2023-07-08T12:13:14;29.10;64.00
21805;DHT22;11064;47.102;15.452;2023-07-08T12:15:41;28.80;62.30
21805;DHT22;11064;47.102;15.452;2023-07-08T12:18:19;28.50;61.30
21805;DHT22;11064;47.102;15.452;2023-07-08T12:20:56;28.50;59.30
21805;DHT22;11064;47.102;15.452;2023-07-08T12:23:24;28.50;59.50
21805;DHT22;11064;47.102;15.452;2023-07-08T12:25:51;28.30;61.30
21805;DHT22;11064;47.102;15.452;2023-07-08T12:28:19;28.40;64.40
21805;DHT22;11064;47.102;15.452;2023-07-08T12:30:46;28.30;62.80
21805;DHT22;11064;47.102;15.452;2023-07-08T12:33:19;28.10;63.60
21805;DHT22;11064;47.102;15.452;2023-07-08T12:35:47;27.90;60.30
21805;DHT22;11064;47.102;15.452;2023-07-08T12:41:29;28.10;62.30
21805;DHT22;11064;47.102;15.452;2023-07-08T12:43:56;28.10;63.20
21805;DHT22;11064;47.102;15.452;2023-07-08T12:46:23;28.20;63.50
21805;DHT22;11064;47.102;15.452;2023-07-08T12:48:50;28.30;65.10
21805;DHT22;11064;47.102;15.452;2023-07-08T12:51:18;28.40;66.50
21805;DHT22;11064;47.102;15.452;2023-07-08T12:53:46;28.40;65.00
21805;DHT22;11064;47.102;15.452;2023-07-08T12:56:13;28.10;64.20
21805;DHT22;11064;47.102;15.452;2023-07-08T12:58:46;28.10;65.00
21805;DHT22;11064;47.102;15.452;2023-07-08T13:01:21;28.00;63.90
21805;DHT22;11064;47.102;15.452;2023-07-08T13:03:54;28.20;60.10
21805;DHT22;11064;47.102;15.452;2023-07-08T13:06:25;28.30;60.40
21805;DHT22;11064;47.102;15.452;2023-07-08T13:08:52;28.60;62.20
21805;DHT22;11064;47.102;15.452;2023-07-08T13:11:21;28.60;61.80
21805;DHT22;11064;47.102;15.452;2023-07-08T13:13:53;28.80;60.60
21805;DHT22;11064;47.102;15.452;2023-07-08T13:16:19;28.40;57.50
21805;DHT22;11064;47.102;15.452;2023-07-08T13:18:46;28.50;60.60
21805;DHT22;11064;47.102;15.452;2023-07-08T13:21:14;28.50;61.90
21805;DHT22;11064;47.102;15.452;2023-07-08T13:23:41;28.80;61.60
21805;DHT22;11064;47.102;15.452;2023-07-08T13:26:16;29.10;60.20
21805;DHT22;11064;47.102;15.452;2023-07-08T13:28:43;28.90;58.80
21805;DHT22;11064;47.102;15.452;2023-07-08T13:31:22;29.00;59.90
21805;DHT22;11064;47.102;15.452;2023-07-08T13:33:53;29.20;61.40
21805;DHT22;11064;47.102;15.452;2023-07-08T13:36:23;29.40;63.40
21805;DHT22;11064;47.102;15.452;2023-07-08T13:38:50;29.50;62.90
21805;DHT22;11064;47.102;15.452;2023-07-08T13:41:21;30.00;61.20
21805;DHT22;11064;47.102;15.452;2023-07-08T13:43:48;30.10;59.80
21805;DHT22;11064;47.102;15.452;2023-07-08T13:46:35;30.10;57.90
21805;DHT22;11064;47.102;15.452;2023-07-08T13:49:09;30.00;59.10
21805;DHT22;11064;47.102;15.452;2023-07-08T13:51:36;29.80;60.30
21805;DHT22;11064;47.102;15.452;2023-07-08T13:54:13;29.80;60.10
21805;DHT22;11064;47.102;15.452;2023-07-08T13:56:41;30.00;60.00
21805;DHT22;11064;47.102;15.452;2023-07-08T13:59:11;30.40;58.90
21805;DHT22;11064;47.102;15.452;2023-07-08T14:01:40;30.60;56.80
21805;DHT22;11064;47.102;15.452;2023-07-08T14:04:09;30.20;55.10
21805;DHT22;11064;47.102;15.452;2023-07-08T14:06:37;30.00;58.00
21805;DHT22;11064;47.102;15.452;2023-07-08T14:09:15;29.50;57.10
21805;DHT22;11064;47.102;15.452;2023-07-08T14:11:42;29.20;59.00
21805;DHT22;11064;47.102;15.452;2023-07-08T14:14:09;28.90;59.50
21805;DHT22;11064;47.102;15.452;2023-07-08T14:16:41;28.60;59.80
21805;DHT22;11064;47.102;15.452;2023-07-08T14:19:20;28.40;58.90
21805;DHT22;11064;47.102;15.452;2023-07-08T14:22:40;28.40;61.60
21805;DHT22;11064;47.102;15.452;2023-07-08T14:24:42;28.50;60.10
21805;DHT22;11064;47.102;15.452;2023-07-08T14:27:09;28.60;61.30
21805;DHT22;11064;47.102;15.452;2023-07-08T14:29:43;28.50;60.80
21805;DHT22;11064;47.102;15.452;2023-07-08T14:32:16;28.60;59.30
21805;DHT22;11064;47.102;15.452;2023-07-08T14:34:49;28.70;61.90
21805;DHT22;11064;47.102;15.452;2023-07-08T14:37:16;28.80;60.20
21805;DHT22;11064;47.102;15.452;2023-07-08T14:39:43;28.60;60.90
21805;DHT22;11064;47.102;15.452;2023-07-08T14:42:14;28.70;60.90
21805;DHT22;11064;47.102;15.452;2023-07-08T14:44:44;28.80;60.00
21805;DHT22;11064;47.102;15.452;2023-07-08T14:47:16;28.70;59.60
21805;DHT22;11064;47.102;15.452;2023-07-08T14:49:42;28.60;61.80
21805;DHT22;11064;47.102;15.452;2023-07-08T14:52:09;28.60;59.80
21805;DHT22;11064;47.102;15.452;2023-07-08T14:54:35;28.30;59.00
21805;DHT22;11064;47.102;15.452;2023-07-08T14:57:02;28.40;58.60
21805;DHT22;11064;47.102;15.452;2023-07-08T14:59:31;28.30;58.80
21805;DHT22;11064;47.102;15.452;2023-07-08T15:01:58;28.50;59.90
21805;DHT22;11064;47.102;15.452;2023-07-08T15:04:24;28.60;60.70
21805;DHT22;11064;47.102;15.452;2023-07-08T15:06:52;28.80;59.70
21805;DHT22;11064;47.102;15.452;2023-07-08T15:09:20;28.80;59.30
21805;DHT22;11064;47.102;15.452;2023-07-08T15:11:46;28.50;58.60
21805;DHT22;11064;47.102;15.452;2023-07-08T15:14:22;28.60;58.60
21805;DHT22;11064;47.102;15.452;2023-07-08T15:16:52;28.70;58.90
21805;DHT22;11064;47.102;15.452;2023-07-08T15:19:19;28.80;60.20
21805;DHT22;11064;47.102;15.452;2023-07-08T15:21:45;28.80;59.60
21805;DHT22;11064;47.102;15.452;2023-07-08T15:24:13;29.10;57.20
21805;DHT22;11064;47.102;15.452;2023-07-08T15:26:41;29.40;58.60
21805;DHT22;11064;47.102;15.452;2023-07-08T15:29:16;30.30;57.80
21805;DHT22;11064;47.102;15.452;2023-07-08T15:31:43;31.60;55.10
21805;DHT22;11064;47.102;15.452;2023-07-08T15:34:14;32.60;52.50
21805;DHT22;11064;47.102;15.452;2023-07-08T15:36:40;33.30;51.10
21805;DHT22;11064;47.102;15.452;2023-07-08T15:39:06;33.70;49.80
21805;DHT22;11064;47.102;15.452;2023-07-08T15:41:32;33.50;49.60
21805;DHT22;11064;47.102;15.452;2023-07-08T15:43:59;32.60;49.80
21805;DHT22;11064;47.102;15.452;2023-07-08T15:46:33;32.40;52.40
21805;DHT22;11064;47.102;15.452;2023-07-08T15:49:01;31.60;53.70
21805;DHT22;11064;47.102;15.452;2023-07-08T15:51:35;31.20;54.50
21805;DHT22;11064;47.102;15.452;2023-07-08T15:54:01;31.20;54.70
21805;DHT22;11064;47.102;15.452;2023-07-08T15:56:27;31.50;54.10
21805;DHT22;11064;47.102;15.452;2023-07-08T15:58:53;31.60;53.10
21805;DHT22;11064;47.102;15.452;2023-07-08T16:01:23;31.70;53.20
21805;DHT22;11064;47.102;15.452;2023-07-08T16:03:50;31.30;53.50
21805;DHT22;11064;47.102;15.452;2023-07-08T16:06:17;30.80;55.10
21805;DHT22;11064;47.102;15.452;2023-07-08T16:08:44;30.60;55.80
21805;DHT22;11064;47.102;15.452;2023-07-08T16:11:15;30.00;56.80
21805;DHT22;11064;47.102;15.452;2023-07-08T16:13:42;29.70;58.40
21805;DHT22;11064;47.102;15.452;2023-07-08T16:16:11;29.90;57.10
21805;DHT22;11064;47.102;15.452;2023-07-08T16:18:37;30.20;56.70
21805;DHT22;11064;47.102;15.452;2023-07-08T16:21:04;30.10;56.40
21805;DHT22;11064;47.102;15.452;2023-07-08T16:23:31;30.10;56.70
21805;DHT22;11064;47.102;15.452;2023-07-08T16:25:57;30.00;56.10
21805;DHT22;11064;47.102;15.452;2023-07-08T16:28:38;30.10;56.00
21805;DHT22;11064;47.102;15.452;2023-07-08T16:31:26;30.00;56.70
21805;DHT22;11064;47.102;15.452;2023-07-08T16:33:55;29.50;58.10
21805;DHT22;11064;47.102;15.452;2023-07-08T16:36:23;29.20;57.90
21805;DHT22;11064;47.102;15.452;2023-07-08T16:38:50;28.80;58.60
21805;DHT22;11064;47.102;15.452;2023-07-08T16:41:19;28.90;58.90
21805;DHT22;11064;47.102;15.452;2023-07-08T16:43:46;28.90;58.10
21805;DHT22;11064;47.102;15.452;2023-07-08T16:46:14;29.10;58.60
21805;DHT22;11064;47.102;15.452;2023-07-08T16:48:40;29.90;56.90